createdAt,value
2022-09-26T00:04:08.888Z,100401.31
2022-09-26T00:09:11.735Z,100396.91
2022-09-26T00:14:17.568Z,100387.28
2022-09-26T00:19:19.915Z,100411.47
2022-09-26T00:24:22.061Z,100415.16
2022-09-26T00:29:25.423Z,100406.47
2022-09-26T00:34:27.516Z,100419.91
2022-09-26T00:39:29.600Z,100405.91
2022-09-26T00:44:44.726Z,100401.69
2022-09-26T00:49:48.593Z,100402.84
2022-09-26T00:54:54.042Z,100392.59
2022-09-26T01:00:01.618Z,100395.41
2022-09-26T01:05:05.808Z,100376.72
2022-09-26T01:10:09.083Z,100373.97
2022-09-26T01:15:12.705Z,100372.97
2022-09-26T01:20:26.700Z,100367.53
2022-09-26T01:25:42.167Z,100360.41
2022-09-26T01:30:50.816Z,100355.03
2022-09-26T01:36:23.824Z,100351.59
2022-09-26T01:41:38.774Z,100341.84
2022-09-26T01:46:48.533Z,100346.25
2022-09-26T01:51:58.884Z,100333.81
2022-09-26T01:57:03.825Z,100333.81
2022-09-26T02:02:13.699Z,100340.06
2022-09-26T02:07:18.749Z,100332.09
2022-09-26T02:12:26.181Z,100329.50
2022-09-26T02:17:33.462Z,100318.03
2022-09-26T02:22:35.317Z,100310.13
2022-09-26T02:27:38.047Z,100299.47
2022-09-26T02:32:41.480Z,100304.75
2022-09-26T02:37:43.468Z,100302.94
2022-09-26T02:42:53.811Z,100299.47
2022-09-26T02:48:17.406Z,100287.00
2022-09-26T02:53:34.478Z,100285.34
2022-09-26T02:58:43.491Z,100272.09
2022-09-26T03:03:53.139Z,100272.97
2022-09-26T03:08:57.249Z,100285.38
2022-09-26T03:14:00.439Z,100268.59
2022-09-26T03:19:09.986Z,100266.91
2022-09-26T03:24:12.480Z,100270.53
2022-09-26T03:29:14.313Z,100270.63
2022-09-26T03:34:18.014Z,100275.00
2022-09-26T03:39:20.152Z,100273.22
2022-09-26T03:44:22.408Z,100259.13
2022-09-26T03:49:25.848Z,100251.19
2022-09-26T03:54:27.890Z,100240.56
2022-09-26T03:59:29.825Z,100242.38
2022-09-26T04:04:32.838Z,100231.81
2022-09-26T04:09:35.327Z,100224.03
2022-09-26T04:14:37.288Z,100225.16
2022-09-26T04:19:40.408Z,100220.25
2022-09-26T04:24:42.502Z,100224.38
2022-09-26T04:29:44.641Z,100219.59
2022-09-26T04:34:47.685Z,100214.53
2022-09-26T04:39:49.745Z,100221.84
2022-09-26T04:44:51.404Z,100215.00
2022-09-26T04:49:54.828Z,100213.28
2022-09-26T04:54:56.845Z,100211.56
2022-09-26T04:59:58.830Z,100202.88
2022-09-26T05:05:01.827Z,100211.94
2022-09-26T05:10:03.562Z,100202.16
2022-09-26T05:15:07.438Z,100217.41
2022-09-26T05:20:10.906Z,100209.56
2022-09-26T05:25:12.938Z,100201.63
2022-09-26T05:30:15.407Z,100201.59
2022-09-26T05:35:18.384Z,100206.03
2022-09-26T05:40:21.082Z,100203.38
2022-09-26T05:45:23.154Z,100193.44
2022-09-26T05:50:26.802Z,100190.53
2022-09-26T05:55:29.583Z,100195.50
2022-09-26T06:00:31.429Z,100186.41
2022-09-26T06:05:34.666Z,100189.69
2022-09-26T06:10:36.831Z,100184.09
2022-09-26T06:15:39.921Z,100180.31
2022-09-26T06:20:43.048Z,100177.50
2022-09-26T06:25:44.780Z,100173.66
2022-09-26T06:30:46.412Z,100173.56
2022-09-26T06:35:59.478Z,100160.03
2022-09-26T06:41:01.507Z,100164.00
2022-09-26T06:46:06.104Z,100168.81
2022-09-26T06:51:09.927Z,100163.09
2022-09-26T06:56:11.819Z,100156.34
2022-09-26T07:01:13.797Z,100151.31
2022-09-26T07:06:17.279Z,100151.50
2022-09-26T07:16:40.999Z,100148.72
2022-09-26T07:21:44.324Z,100149.47
2022-09-26T07:26:46.424Z,100148.44
2022-09-26T07:31:48.189Z,100138.09
2022-09-26T07:36:51.543Z,100134.41
2022-09-26T07:41:53.521Z,100132.44
2022-09-26T07:46:55.549Z,100132.06
2022-09-26T07:51:58.558Z,100127.63
2022-09-26T07:57:00.411Z,100127.09
2022-09-26T08:02:02.298Z,100119.91
2022-09-26T08:07:05.410Z,100125.84
2022-09-26T08:12:07.048Z,100132.72
2022-09-26T08:17:13.489Z,100131.81
2022-09-26T08:22:17.310Z,100124.28
2022-09-26T08:27:19.069Z,100125.88
2022-09-26T08:32:20.778Z,100115.16
2022-09-26T08:37:27.587Z,100119.03
2022-09-26T08:42:41.002Z,100121.00
2022-09-26T08:47:47.964Z,100114.38
2022-09-26T08:52:57.467Z,100115.13
2022-09-26T08:58:04.356Z,100107.41
2022-09-26T09:03:17.623Z,100099.78
2022-09-26T09:08:23.895Z,100091.28
2022-09-26T09:13:45.353Z,100091.28
2022-09-26T09:18:54.063Z,100072.34
2022-09-26T09:24:17.246Z,100074.22
2022-09-26T09:29:39.986Z,100053.38
2022-09-26T09:34:44.936Z,100054.75
2022-09-26T09:39:50.091Z,100055.41
2022-09-26T09:44:57.894Z,100063.84
2022-09-26T09:49:59.585Z,100050.00
2022-09-26T09:55:16.219Z,100042.28
2022-09-26T10:00:19.963Z,100033.53
2022-09-26T10:05:31.349Z,100038.00
2022-09-26T10:10:41.103Z,100029.50
2022-09-26T10:15:54.684Z,100018.19
2022-09-26T10:20:59.539Z,100007.09
2022-09-26T10:26:05.591Z,99990.38
2022-09-26T10:31:10.155Z,99983.84
2022-09-26T10:36:19.565Z,99987.19
2022-09-26T10:41:25.229Z,99983.91
2022-09-26T10:46:26.995Z,99976.03
2022-09-26T10:51:32.530Z,99980.38
2022-09-26T10:56:40.395Z,99981.72
2022-09-26T11:01:45.960Z,99975.47
2022-09-26T11:06:49.141Z,99969.38
2022-09-26T11:11:53.529Z,99963.09
2022-09-26T11:16:56.264Z,99948.03
2022-09-26T11:22:07.980Z,99953.34
2022-09-26T11:32:43.937Z,99937.81
2022-09-26T11:38:05.062Z,99949.69
2022-09-26T11:43:23.976Z,99939.91
2022-09-26T11:48:47.490Z,99939.44
2022-09-26T11:54:17.451Z,99926.00
2022-09-26T11:59:36.351Z,99915.38
2022-09-26T12:05:11.548Z,99905.13
2022-09-26T12:10:31.575Z,99894.38
2022-09-26T12:15:40.042Z,99881.75
2022-09-26T12:21:04.972Z,99876.78
2022-09-26T12:26:16.273Z,99875.22
2022-09-26T12:31:32.489Z,99874.38
2022-09-26T12:36:49.184Z,99867.69
2022-09-26T12:42:09.749Z,99861.69
2022-09-26T12:47:24.411Z,99848.28
2022-09-26T12:52:42.419Z,99845.59
2022-09-26T12:57:59.924Z,99847.88
2022-09-26T13:03:33.539Z,99826.97
2022-09-26T13:08:48.254Z,99828.44
2022-09-26T13:14:17.030Z,99825.88
2022-09-26T13:19:27.516Z,99821.88
2022-09-26T13:24:38.229Z,99806.94
2022-09-26T13:29:43.539Z,99813.22
2022-09-26T13:34:51.729Z,99796.28
2022-09-26T13:39:59.243Z,99788.66
2022-09-26T13:45:16.463Z,99786.47
2022-09-26T13:50:25.838Z,99775.03
2022-09-26T13:55:27.849Z,99781.53
2022-09-26T14:00:43.994Z,99771.34
2022-09-26T14:05:49.052Z,99757.47
2022-09-26T14:10:53.857Z,99750.03
2022-09-26T14:16:02.206Z,99752.88
2022-09-26T14:21:17.043Z,99753.25
2022-09-26T14:26:20.178Z,99742.41
2022-09-26T14:31:56.923Z,99738.94
2022-09-26T14:37:23.646Z,99738.00
2022-09-26T14:42:40.449Z,99731.38
2022-09-26T14:47:45.010Z,99719.41
2022-09-26T14:52:53.035Z,99719.84
2022-09-26T14:58:16.357Z,99723.03
2022-09-26T15:03:20.766Z,99713.34
2022-09-26T15:08:26.879Z,99708.53
2022-09-26T15:13:35.733Z,99708.09
2022-09-26T15:18:41.052Z,99697.63
2022-09-26T15:23:49.381Z,99695.31
2022-09-26T15:28:53.369Z,99692.66
2022-09-26T15:34:00.818Z,99682.94
2022-09-26T15:39:24.212Z,99675.03
2022-09-26T15:44:26.038Z,99676.50
2022-09-26T15:49:28.034Z,99667.72
2022-09-26T15:54:32.331Z,99663.38
2022-09-26T15:59:41.182Z,99667.19
2022-09-26T16:04:43.334Z,99660.91
2022-09-26T16:09:49.263Z,99654.81
2022-09-26T16:14:54.765Z,99653.44
2022-09-26T16:20:02.325Z,99657.50
2022-09-26T16:25:35.266Z,99651.03
2022-09-26T16:30:42.347Z,99646.94
2022-09-26T16:35:46.352Z,99638.16
2022-09-26T16:40:52.382Z,99632.25
2022-09-26T16:46:04.499Z,99637.06
2022-09-26T16:51:15.206Z,99628.03
2022-09-26T16:56:20.466Z,99635.09
2022-09-26T17:01:23.010Z,99629.97
2022-09-26T17:06:24.796Z,99629.75
2022-09-26T17:11:28.481Z,99622.06
2022-09-26T17:16:31.288Z,99623.47
2022-09-26T17:21:33.380Z,99629.41
2022-09-26T17:26:36.874Z,99633.22
2022-09-26T17:31:39.459Z,99618.41
2022-09-26T17:36:46.157Z,99618.09
2022-09-26T17:41:49.456Z,99618.38
2022-09-26T17:46:54.523Z,99611.28
2022-09-26T17:51:57.296Z,99598.97
2022-09-26T17:57:00.699Z,99609.38
2022-09-26T18:02:11.091Z,99606.03
2022-09-26T18:07:13.256Z,99596.84
2022-09-26T18:12:19.719Z,99596.56
2022-09-26T18:17:21.373Z,99596.28
2022-09-26T18:22:29.757Z,99595.09
2022-09-26T18:27:34.157Z,99600.56
2022-09-26T18:32:39.158Z,99593.69
2022-09-26T18:37:41.627Z,99587.38
2022-09-26T18:42:45.447Z,99579.84
2022-09-26T18:47:47.181Z,99587.94
2022-09-26T18:52:50.084Z,99585.25
2022-09-26T18:57:53.265Z,99592.06
2022-09-26T19:02:55.323Z,99585.03
2022-09-26T19:07:57.179Z,99582.81
2022-09-26T19:13:00.271Z,99575.22
2022-09-26T19:18:02.055Z,99572.88
2022-09-26T19:23:04.122Z,99562.09
2022-09-26T19:28:12.503Z,99561.25
2022-09-26T19:33:14.437Z,99564.88
2022-09-26T19:38:19.830Z,99561.84
2022-09-26T19:43:22.951Z,99552.63
2022-09-26T19:48:24.682Z,99542.78
2022-09-26T19:53:27.248Z,99541.44
2022-09-26T19:58:30.471Z,99542.34
2022-09-26T20:03:34.283Z,99544.47
2022-09-26T20:08:36.491Z,99533.34
2022-09-26T20:13:40.331Z,99519.75
2022-09-26T20:18:42.177Z,99525.63
2022-09-26T20:23:46.230Z,99523.16
2022-09-26T20:28:49.762Z,99516.03
2022-09-26T20:33:52.733Z,99509.91
2022-09-26T20:38:58.030Z,99503.59
2022-09-26T20:44:06.756Z,99500.91
2022-09-26T20:49:15.937Z,99487.81
2022-09-26T20:54:25.384Z,99484.59
2022-09-26T20:59:28.574Z,99483.03
2022-09-26T21:04:32.941Z,99482.50
2022-09-26T21:09:35.053Z,99475.69
2022-09-26T21:14:39.529Z,99476.06
2022-09-26T21:19:41.606Z,99471.09
2022-09-26T21:24:43.970Z,99465.19
2022-09-26T21:29:47.506Z,99454.63
2022-09-26T21:34:59.025Z,99452.28
2022-09-26T21:40:01.697Z,99439.09
2022-09-26T21:45:09.507Z,99436.69
2022-09-26T21:50:12.020Z,99436.59
2022-09-26T21:55:20.380Z,99430.47
2022-09-26T22:00:23.732Z,99428.59
2022-09-26T22:05:25.985Z,99422.53
2022-09-26T22:10:28.015Z,99416.22
2022-09-26T22:15:31.452Z,99398.28
2022-09-26T22:20:34.088Z,99388.44
2022-09-26T22:25:39.607Z,99380.53
2022-09-26T22:30:45.610Z,99374.34
2022-09-26T22:35:47.759Z,99367.44
2022-09-26T22:40:55.969Z,99363.72
2022-09-26T22:46:02.742Z,99354.81
2022-09-26T22:51:05.790Z,99350.41
2022-09-26T22:56:10.191Z,99337.13
2022-09-26T23:01:16.400Z,99334.34
2022-09-26T23:06:19.059Z,99335.25
2022-09-26T23:11:21.179Z,99315.72
2022-09-26T23:16:25.642Z,99306.00
2022-09-26T23:21:28.155Z,99294.44
2022-09-26T23:26:31.712Z,99287.50
2022-09-26T23:31:35.279Z,99276.84
2022-09-26T23:36:37.307Z,99274.81
2022-09-26T23:41:39.815Z,99268.63
2022-09-26T23:46:42.877Z,99253.75
2022-09-26T23:51:44.907Z,99259.72
2022-09-26T23:56:47.017Z,99251.00
